createdAt,value
2018-05-06T00:01:40.705Z,15.50
2018-05-06T00:04:08.108Z,15.40
2018-05-06T00:06:35.529Z,15.40
2018-05-06T00:09:03.729Z,15.30
2018-05-06T00:11:31.196Z,15.30
2018-05-06T00:13:58.608Z,15.30
2018-05-06T00:16:26.049Z,15.40
2018-05-06T00:18:53.461Z,15.20
2018-05-06T00:21:20.877Z,15.20
2018-05-06T00:23:48.293Z,15.20
2018-05-06T00:26:15.812Z,15.20
2018-05-06T00:28:43.228Z,15.30
2018-05-06T00:31:10.643Z,15.10
2018-05-06T00:33:38.866Z,15.20
2018-05-06T00:36:07.003Z,15.10
2018-05-06T00:38:34.414Z,15.10
2018-05-06T00:41:01.868Z,15.10
2018-05-06T00:43:29.280Z,15.10
2018-05-06T00:45:56.697Z,15.10
2018-05-06T00:48:24.113Z,15.00
2018-05-06T00:50:51.521Z,14.90
2018-05-06T00:53:19.709Z,14.80
2018-05-06T00:55:47.880Z,14.60
2018-05-06T00:58:15.305Z,14.60
2018-05-06T01:00:42.712Z,14.60
2018-05-06T01:03:10.132Z,14.60
2018-05-06T01:05:37.548Z,14.50
2018-05-06T01:08:04.964Z,14.50
2018-05-06T01:10:32.372Z,14.50
2018-05-06T01:12:59.788Z,14.50
2018-05-06T01:15:27.965Z,14.40
2018-05-06T01:17:56.148Z,14.50
2018-05-06T01:20:24.328Z,14.50
2018-05-06T01:22:52.508Z,14.50
2018-05-06T01:25:19.972Z,14.50
2018-05-06T01:27:47.382Z,14.50
2018-05-06T01:30:14.796Z,14.50
2018-05-06T01:32:42.208Z,14.40
2018-05-06T01:35:10.393Z,14.40
2018-05-06T01:37:38.564Z,14.30
2018-05-06T01:40:05.985Z,14.30
2018-05-06T01:42:33.392Z,14.30
2018-05-06T01:45:00.815Z,14.30
2018-05-06T01:47:28.276Z,14.30
2018-05-06T01:49:55.692Z,14.30
2018-05-06T01:52:23.873Z,14.20
2018-05-06T01:54:51.283Z,14.20
2018-05-06T01:57:19.460Z,14.00
2018-05-06T01:59:47.677Z,14.00
2018-05-06T02:02:15.085Z,14.00
2018-05-06T02:04:42.609Z,14.00
2018-05-06T02:07:10.016Z,13.90
2018-05-06T02:09:37.432Z,13.90
2018-05-06T02:12:05.605Z,13.80
2018-05-06T02:14:33.025Z,13.80
2018-05-06T02:17:00.436Z,13.80
2018-05-06T02:19:27.944Z,13.80
2018-05-06T02:21:55.353Z,13.70
2018-05-06T02:24:22.880Z,13.70
2018-05-06T02:26:50.352Z,13.60
2018-05-06T02:29:17.765Z,13.70
2018-05-06T02:31:45.226Z,13.70
2018-05-06T02:34:12.612Z,13.70
2018-05-06T02:36:40.029Z,13.60
2018-05-06T02:39:07.437Z,13.70
2018-05-06T02:41:34.852Z,13.60
2018-05-06T02:44:03.029Z,13.60
2018-05-06T02:46:30.448Z,13.50
2018-05-06T02:48:57.896Z,13.60
2018-05-06T02:51:25.325Z,13.50
2018-05-06T02:53:53.512Z,13.50
2018-05-06T02:56:20.928Z,13.50
2018-05-06T02:58:48.388Z,13.40
2018-05-06T03:01:15.804Z,13.50
2018-05-06T03:03:43.217Z,13.50
2018-05-06T03:06:11.400Z,13.50
2018-05-06T03:08:39.577Z,13.50
2018-05-06T03:11:07.760Z,13.60
2018-05-06T03:13:35.165Z,13.60
2018-05-06T03:16:02.580Z,13.60
2018-05-06T03:18:29.992Z,13.60
2018-05-06T03:20:57.412Z,13.60
2018-05-06T03:23:24.816Z,13.60
2018-05-06T03:25:53.005Z,13.60
2018-05-06T03:28:21.177Z,13.60
2018-05-06T03:30:48.583Z,13.50
2018-05-06T03:33:16.000Z,13.50
2018-05-06T03:35:43.518Z,13.50
2018-05-06T03:38:10.937Z,13.40
2018-05-06T03:40:38.341Z,13.40
2018-05-06T03:43:06.521Z,13.40
2018-05-06T03:45:34.728Z,13.40
2018-05-06T03:48:02.144Z,13.30
2018-05-06T03:50:29.553Z,13.30
2018-05-06T03:52:57.739Z,13.20
2018-05-06T03:55:25.912Z,13.20
2018-05-06T03:58:05.985Z,13.10
2018-05-06T04:00:41.013Z,13.00
2018-05-06T04:03:08.429Z,13.00
2018-05-06T04:05:35.838Z,12.90
2018-05-06T04:08:03.252Z,12.90
2018-05-06T04:10:31.548Z,12.90
2018-05-06T04:12:59.737Z,12.80
2018-05-06T04:15:27.902Z,12.80
2018-05-06T04:17:56.089Z,12.70
2018-05-06T04:20:24.268Z,12.70
2018-05-06T04:22:51.763Z,12.70
2018-05-06T04:25:19.237Z,12.80
2018-05-06T04:27:46.653Z,12.80
2018-05-06T04:30:14.064Z,12.80
2018-05-06T04:32:42.252Z,12.80
2018-05-06T04:35:10.457Z,12.80
2018-05-06T04:37:37.864Z,12.80
2018-05-06T04:40:05.280Z,12.80
2018-05-06T04:42:33.461Z,12.90
2018-05-06T04:45:01.642Z,12.90
2018-05-06T04:47:29.812Z,13.00
2018-05-06T04:49:57.339Z,12.90
2018-05-06T04:52:24.788Z,13.00
2018-05-06T04:54:52.205Z,13.00
2018-05-06T04:57:19.612Z,13.00
2018-05-06T04:59:47.806Z,13.00
2018-05-06T05:02:15.977Z,13.00
2018-05-06T05:04:44.157Z,13.10
2018-05-06T05:07:11.566Z,13.10
2018-05-06T05:09:39.124Z,13.10
2018-05-06T05:12:06.438Z,13.30
2018-05-06T05:14:33.857Z,13.40
2018-05-06T05:17:02.033Z,13.60
2018-05-06T05:19:30.214Z,13.70
2018-05-06T05:21:57.621Z,13.70
2018-05-06T05:24:25.039Z,13.80
2018-05-06T05:26:52.453Z,13.90
2018-05-06T05:29:19.881Z,14.00
2018-05-06T05:31:47.387Z,14.00
2018-05-06T05:34:14.796Z,14.00
2018-05-06T05:36:42.212Z,14.10
2018-05-06T05:39:10.384Z,14.30
2018-05-06T05:41:37.801Z,14.30
2018-05-06T05:44:05.212Z,14.40
2018-05-06T05:46:32.730Z,14.50
2018-05-06T05:49:00.144Z,14.50
2018-05-06T05:51:27.565Z,14.70
2018-05-06T05:53:54.972Z,14.80
2018-05-06T05:56:22.388Z,14.90
2018-05-06T05:58:50.585Z,15.00
2018-05-06T06:01:18.748Z,15.10
2018-05-06T06:03:46.915Z,15.10
2018-05-06T06:06:14.334Z,15.10
2018-05-06T06:08:41.801Z,15.30
2018-05-06T06:11:09.208Z,15.40
2018-05-06T06:13:36.625Z,15.60
2018-05-06T06:16:04.820Z,16.10
2018-05-06T06:18:32.292Z,16.10
2018-05-06T06:20:59.761Z,16.60
2018-05-06T06:23:27.228Z,17.80
2018-05-06T06:25:54.696Z,19.50
2018-05-06T06:28:22.120Z,21.20
2018-05-06T06:30:49.537Z,22.80
2018-05-06T06:33:17.018Z,24.10
2018-05-06T06:35:44.480Z,25.20
2018-05-06T06:38:11.949Z,26.70
2018-05-06T06:40:39.356Z,28.10
2018-05-06T06:43:06.781Z,28.90
2018-05-06T06:45:34.196Z,29.60
2018-05-06T06:48:01.783Z,30.80
2018-05-06T06:50:29.921Z,32.80
2018-05-06T06:52:57.362Z,32.70
2018-05-06T06:55:25.621Z,34.00
2018-05-06T06:57:52.961Z,34.00
2018-05-06T07:00:20.425Z,34.60
2018-05-06T07:02:47.853Z,33.70
2018-05-06T07:05:15.271Z,33.20
2018-05-06T07:07:42.684Z,33.70
2018-05-06T07:10:10.121Z,34.20
2018-05-06T07:12:37.544Z,35.00
2018-05-06T07:15:05.057Z,34.20
2018-05-06T07:17:32.525Z,33.90
2018-05-06T07:19:59.945Z,33.30
2018-05-06T07:22:27.360Z,32.40
2018-05-06T07:24:54.793Z,32.00
2018-05-06T07:27:22.209Z,31.80
2018-05-06T07:29:49.715Z,31.50
2018-05-06T07:32:17.149Z,31.20
2018-05-06T07:34:44.612Z,30.30
2018-05-06T07:37:12.029Z,29.50
2018-05-06T07:39:39.456Z,28.60
2018-05-06T07:42:06.864Z,27.70
2018-05-06T07:44:34.280Z,27.20
2018-05-06T07:47:02.492Z,25.80
2018-05-06T07:49:29.910Z,25.80
2018-05-06T07:51:57.321Z,25.60
2018-05-06T07:54:24.755Z,25.50
2018-05-06T07:56:52.146Z,25.50
2018-05-06T07:59:19.623Z,25.50
2018-05-06T08:01:47.028Z,25.60
2018-05-06T08:04:14.469Z,25.50
2018-05-06T08:06:41.876Z,25.50
2018-05-06T08:09:09.293Z,25.50
2018-05-06T08:11:37.469Z,25.60
2018-05-06T08:14:05.640Z,25.50
2018-05-06T08:16:33.160Z,25.50
2018-05-06T08:19:00.561Z,25.60
2018-05-06T08:21:27.976Z,25.70
2018-05-06T08:23:55.412Z,25.80
2018-05-06T08:26:22.828Z,25.90
2018-05-06T08:28:50.240Z,25.90
2018-05-06T08:31:17.652Z,26.00
2018-05-06T08:33:45.065Z,26.00
2018-05-06T08:36:12.479Z,26.10
2018-05-06T08:38:40.657Z,26.10
2018-05-06T08:41:08.870Z,26.20
2018-05-06T08:43:36.281Z,26.20
2018-05-06T08:46:03.696Z,26.30
2018-05-06T08:48:31.869Z,25.60
2018-05-06T08:51:00.061Z,25.00
2018-05-06T08:53:28.228Z,25.20
2018-05-06T08:55:55.639Z,25.20
2018-05-06T08:58:23.061Z,25.40
2018-05-06T09:00:50.472Z,25.80
2018-05-06T09:03:18.660Z,26.20
2018-05-06T09:05:46.832Z,26.40
2018-05-06T09:08:14.336Z,26.40
2018-05-06T09:10:41.809Z,26.60
2018-05-06T09:13:09.285Z,26.90
2018-05-06T09:15:36.693Z,27.20
2018-05-06T09:18:04.116Z,27.40
2018-05-06T09:20:31.524Z,27.60
2018-05-06T09:22:58.956Z,27.80
2018-05-06T09:25:26.439Z,27.90
2018-05-06T09:27:53.845Z,27.80
2018-05-06T09:30:21.249Z,27.90
2018-05-06T09:32:48.669Z,28.10
2018-05-06T09:35:16.096Z,28.20
2018-05-06T09:37:43.627Z,28.40
2018-05-06T09:40:10.997Z,28.50
2018-05-06T09:42:38.510Z,28.70
2018-05-06T09:45:05.977Z,28.80
2018-05-06T09:47:33.452Z,28.90
2018-05-06T09:50:00.801Z,29.00
2018-05-06T09:52:29.032Z,29.20
2018-05-06T09:54:56.582Z,29.20
2018-05-06T09:57:24.044Z,29.20
2018-05-06T09:59:51.514Z,29.30
2018-05-06T10:02:18.929Z,29.50
2018-05-06T10:04:46.457Z,29.50
2018-05-06T10:07:13.864Z,29.80
2018-05-06T10:09:41.281Z,29.50
2018-05-06T10:12:09.455Z,29.30
2018-05-06T10:14:37.640Z,29.00
2018-05-06T10:17:05.052Z,29.00
2018-05-06T10:19:32.469Z,29.20
2018-05-06T10:21:59.982Z,29.50
2018-05-06T10:24:27.453Z,29.50
2018-05-06T10:26:54.925Z,29.10
2018-05-06T10:29:22.328Z,29.10
2018-05-06T10:31:49.744Z,29.50
2018-05-06T10:34:17.230Z,29.70
2018-05-06T10:36:44.696Z,30.10
2018-05-06T10:39:12.109Z,30.10
2018-05-06T10:41:39.542Z,29.10
2018-05-06T10:44:07.082Z,29.20
2018-05-06T10:46:34.477Z,29.60
2018-05-06T10:49:01.923Z,29.60
2018-05-06T10:51:29.304Z,29.90
2018-05-06T10:53:56.787Z,30.00
2018-05-06T10:56:24.207Z,30.20
2018-05-06T10:58:51.716Z,30.50
2018-05-06T11:01:19.194Z,30.80
2018-05-06T11:03:46.608Z,31.00
2018-05-06T11:06:14.145Z,31.40
2018-05-06T11:08:41.561Z,31.70
2018-05-06T11:11:09.070Z,31.80
2018-05-06T11:13:36.492Z,31.70
2018-05-06T11:16:04.019Z,31.00
2018-05-06T11:18:31.497Z,31.10
2018-05-06T11:20:58.958Z,31.00
2018-05-06T11:23:26.396Z,30.20
2018-05-06T11:25:54.581Z,30.70
2018-05-06T11:28:22.805Z,31.00
2018-05-06T11:30:50.226Z,31.00
2018-05-06T11:33:17.748Z,31.20
2018-05-06T11:35:45.218Z,31.40
2018-05-06T11:38:12.639Z,31.30
2018-05-06T11:40:40.058Z,31.50
2018-05-06T11:43:07.485Z,31.40
2018-05-06T11:45:35.093Z,30.70
2018-05-06T11:48:02.592Z,30.90
2018-05-06T11:50:29.982Z,31.10
2018-05-06T11:52:57.399Z,31.10
2018-05-06T11:55:24.816Z,31.50
2018-05-06T11:57:52.246Z,31.60
2018-05-06T12:00:19.713Z,31.70
2018-05-06T12:02:47.125Z,31.50
2018-05-06T12:05:14.556Z,30.70
2018-05-06T12:07:42.017Z,30.40
2018-05-06T12:10:09.441Z,30.70
2018-05-06T12:12:36.857Z,31.10
2018-05-06T12:15:04.272Z,31.50
2018-05-06T12:17:31.688Z,31.70
2018-05-06T12:19:59.112Z,32.10
2018-05-06T12:22:26.528Z,32.50
2018-05-06T12:24:53.953Z,32.40
2018-05-06T12:27:21.478Z,32.50
2018-05-06T12:29:48.892Z,32.20
2018-05-06T12:32:16.416Z,32.40
2018-05-06T12:34:43.885Z,32.60
2018-05-06T12:37:11.304Z,32.60
2018-05-06T12:39:38.720Z,31.80
2018-05-06T12:42:06.138Z,31.30
2018-05-06T12:44:33.573Z,31.20
2018-05-06T12:47:00.994Z,31.20
2018-05-06T12:49:28.559Z,31.60
2018-05-06T12:51:55.935Z,31.80
2018-05-06T12:54:23.344Z,32.00
2018-05-06T12:56:50.818Z,31.60
2018-05-06T12:59:18.230Z,31.40
2018-05-06T13:01:45.757Z,31.60
2018-05-06T13:04:13.334Z,31.80
2018-05-06T13:06:40.792Z,32.00
2018-05-06T13:09:08.217Z,32.30
2018-05-06T13:11:35.640Z,32.50
2018-05-06T13:14:03.102Z,32.70
2018-05-06T13:16:30.528Z,32.80
2018-05-06T13:18:57.953Z,32.80
2018-05-06T13:21:25.409Z,32.70
2018-05-06T13:23:52.828Z,32.40
2018-05-06T13:26:20.258Z,32.30
2018-05-06T13:28:47.731Z,32.00
2018-05-06T13:31:15.139Z,31.30
2018-05-06T13:33:42.540Z,31.00
2018-05-06T13:36:10.733Z,31.40
2018-05-06T13:38:38.152Z,31.40
2018-05-06T13:41:05.585Z,31.70
2018-05-06T13:43:33.004Z,32.00
2018-05-06T13:46:00.420Z,32.20
2018-05-06T13:48:27.848Z,31.90
2018-05-06T13:50:55.364Z,32.00
2018-05-06T13:53:22.785Z,32.10
2018-05-06T13:55:50.309Z,32.10
2018-05-06T13:58:17.750Z,32.10
2018-05-06T14:00:45.960Z,31.90
2018-05-06T14:03:13.445Z,31.90
2018-05-06T14:05:40.905Z,31.80
2018-05-06T14:08:08.379Z,31.50
2018-05-06T14:10:35.785Z,31.10
2018-05-06T14:13:03.209Z,31.10
2018-05-06T14:15:30.620Z,31.10
2018-05-06T14:17:58.149Z,31.20
2018-05-06T14:20:25.636Z,31.10
2018-05-06T14:22:53.033Z,30.40
2018-05-06T14:25:20.451Z,30.40
2018-05-06T14:27:47.868Z,30.20
2018-05-06T14:30:15.281Z,30.30
2018-05-06T14:32:43.482Z,30.70
2018-05-06T14:35:10.952Z,30.60
2018-05-06T14:37:38.373Z,30.80
2018-05-06T14:40:05.789Z,31.00
2018-05-06T14:42:33.286Z,30.80
2018-05-06T14:45:00.632Z,30.70
2018-05-06T14:50:28.856Z,30.10
2018-05-06T14:52:56.277Z,30.00
2018-05-06T14:55:23.693Z,30.00
2018-05-06T14:57:51.113Z,29.90
2018-05-06T15:00:18.639Z,29.90
2018-05-06T15:02:46.052Z,29.90
2018-05-06T15:05:13.478Z,29.70
2018-05-06T15:07:40.888Z,29.70
2018-05-06T15:10:08.313Z,29.60
2018-05-06T15:12:35.724Z,29.50
2018-05-06T15:15:03.147Z,29.30
2018-05-06T15:17:30.621Z,29.00
2018-05-06T15:19:58.084Z,28.80
2018-05-06T15:22:25.559Z,28.70
2018-05-06T15:24:52.973Z,28.80
2018-05-06T15:27:20.388Z,28.90
2018-05-06T15:29:47.813Z,28.70
2018-05-06T15:32:15.239Z,28.50
2018-05-06T15:34:42.652Z,28.30
2018-05-06T15:37:10.178Z,28.10
2018-05-06T15:39:37.648Z,28.10
2018-05-06T15:42:05.108Z,28.10
2018-05-06T15:44:32.582Z,28.20
2018-05-06T15:46:59.998Z,28.20
2018-05-06T15:49:27.521Z,28.10
2018-05-06T15:51:55.105Z,27.80
2018-05-06T15:54:23.285Z,27.30
2018-05-06T15:56:50.701Z,27.20
2018-05-06T15:59:18.115Z,26.90
2018-05-06T16:04:48.002Z,26.50
2018-05-06T16:07:15.456Z,26.50
2018-05-06T16:09:42.876Z,26.60
2018-05-06T16:12:10.283Z,26.70
2018-05-06T16:14:37.695Z,26.70
2018-05-06T16:17:05.113Z,26.60
2018-05-06T16:19:33.288Z,26.70
2018-05-06T16:22:01.474Z,26.50
2018-05-06T16:24:28.880Z,26.50
2018-05-06T16:26:56.297Z,26.60
2018-05-06T16:29:23.713Z,26.70
2018-05-06T16:31:51.133Z,26.40
2018-05-06T16:34:18.540Z,26.20
2018-05-06T16:36:46.017Z,26.20
2018-05-06T16:39:13.434Z,26.10
2018-05-06T16:41:40.849Z,26.30
2018-05-06T16:44:08.328Z,26.20
2018-05-06T16:46:35.741Z,26.00
2018-05-06T16:49:03.148Z,25.70
2018-05-06T16:51:31.332Z,25.40
2018-05-06T16:53:59.509Z,25.40
2018-05-06T16:56:27.704Z,25.20
2018-05-06T16:58:55.877Z,25.20
2018-05-06T17:03:57.148Z,25.10
2018-05-06T17:06:24.578Z,25.10
2018-05-06T17:08:51.989Z,25.10
2018-05-06T17:11:19.407Z,25.00
2018-05-06T17:13:46.813Z,24.80
2018-05-06T17:16:14.230Z,24.70
2018-05-06T17:18:42.412Z,24.60
2018-05-06T17:21:10.605Z,24.50
2018-05-06T17:23:38.790Z,24.40
2018-05-06T17:26:06.200Z,24.40
2018-05-06T17:28:33.603Z,24.40
2018-05-06T17:31:01.116Z,24.20
2018-05-06T17:33:28.585Z,24.30
2018-05-06T17:35:55.993Z,24.30
2018-05-06T17:38:23.408Z,24.20
2018-05-06T17:40:51.608Z,24.20
2018-05-06T17:43:19.025Z,24.20
2018-05-06T17:45:46.445Z,24.10
2018-05-06T17:48:13.871Z,24.00
2018-05-06T17:50:41.281Z,23.90
2018-05-06T17:53:08.755Z,23.80
2018-05-06T17:55:36.233Z,23.80
2018-05-06T17:58:03.664Z,23.80
2018-05-06T18:00:31.168Z,23.70
2018-05-06T18:02:58.589Z,23.70
2018-05-06T18:05:26.001Z,23.60
2018-05-06T18:07:53.479Z,23.50
2018-05-06T18:10:20.884Z,23.50
2018-05-06T18:12:48.301Z,23.50
2018-05-06T18:15:16.496Z,23.50
2018-05-06T18:17:43.912Z,23.50
2018-05-06T18:20:11.324Z,23.50
2018-05-06T18:22:39.587Z,23.50
2018-05-06T18:25:07.697Z,23.50
2018-05-06T18:27:35.904Z,23.40
2018-05-06T18:30:03.314Z,23.40
2018-05-06T18:32:30.729Z,23.30
2018-05-06T18:34:58.908Z,23.20
2018-05-06T18:37:27.119Z,23.10
2018-05-06T18:39:54.585Z,23.10
2018-05-06T18:42:22.009Z,22.90
2018-05-06T18:44:49.535Z,22.60
2018-05-06T18:47:17.688Z,22.30
2018-05-06T18:49:45.892Z,22.10
2018-05-06T18:52:13.368Z,22.10
2018-05-06T18:54:40.837Z,22.00
2018-05-06T18:57:08.244Z,21.80
2018-05-06T18:59:35.669Z,21.70
2018-05-06T19:02:03.852Z,21.60
2018-05-06T19:04:32.032Z,21.50
2018-05-06T19:07:00.208Z,21.40
2018-05-06T19:09:27.721Z,21.40
2018-05-06T19:11:55.117Z,21.40
2018-05-06T19:14:22.540Z,21.30
2018-05-06T19:16:50.719Z,21.10
2018-05-06T19:19:18.904Z,21.10
2018-05-06T19:21:47.076Z,21.00
2018-05-06T19:24:14.489Z,21.00
2018-05-06T19:26:41.903Z,20.90
2018-05-06T19:29:09.312Z,20.80
2018-05-06T19:31:37.486Z,20.60
2018-05-06T19:34:05.661Z,20.60
2018-05-06T19:36:33.840Z,20.50
2018-05-06T19:39:01.265Z,20.50
2018-05-06T19:41:28.676Z,20.40
2018-05-06T19:43:56.090Z,20.40
2018-05-06T19:46:23.513Z,20.30
2018-05-06T19:48:51.086Z,20.30
2018-05-06T19:51:18.433Z,20.30
2018-05-06T19:53:45.849Z,20.30
2018-05-06T19:56:14.029Z,20.20
2018-05-06T19:58:42.237Z,20.20
2018-05-06T20:01:09.653Z,20.10
2018-05-06T20:03:37.061Z,20.10
2018-05-06T20:06:05.262Z,20.00
2018-05-06T20:08:33.427Z,20.00
2018-05-06T20:11:01.609Z,19.90
2018-05-06T20:13:29.821Z,19.90
2018-05-06T20:15:57.236Z,19.80
2018-05-06T20:18:24.640Z,19.80
2018-05-06T20:20:52.829Z,19.70
2018-05-06T20:23:21.000Z,19.60
2018-05-06T20:25:48.420Z,19.60
2018-05-06T20:28:15.829Z,19.50
2018-05-06T20:30:43.252Z,19.50
2018-05-06T20:33:10.708Z,19.40
2018-05-06T20:35:38.122Z,19.30
2018-05-06T20:38:05.553Z,19.20
2018-05-06T20:40:32.964Z,19.20
2018-05-06T20:43:00.376Z,19.20
2018-05-06T20:45:28.553Z,19.10
2018-05-06T20:47:56.761Z,19.10
2018-05-06T20:50:24.172Z,19.10
2018-05-06T20:52:51.696Z,19.10
2018-05-06T20:55:19.131Z,19.00
2018-05-06T20:57:46.521Z,19.00
2018-05-06T21:00:14.696Z,18.90
2018-05-06T21:02:42.881Z,18.80
2018-05-06T21:05:10.329Z,18.70
2018-05-06T21:07:37.709Z,18.80
2018-05-06T21:10:05.122Z,18.70
2018-05-06T21:12:32.528Z,18.70
2018-05-06T21:14:59.948Z,18.70
2018-05-06T21:17:28.144Z,18.70
2018-05-06T21:19:55.548Z,18.60
2018-05-06T21:22:22.964Z,18.70
2018-05-06T21:24:51.137Z,18.60
2018-05-06T21:27:18.548Z,18.60
2018-05-06T21:29:46.023Z,18.50
2018-05-06T21:32:13.376Z,18.50
2018-05-06T21:34:40.797Z,18.50
2018-05-06T21:37:08.292Z,18.40
2018-05-06T21:39:36.388Z,18.30
2018-05-06T21:42:04.556Z,18.30
2018-05-06T21:44:31.974Z,18.30
2018-05-06T21:46:59.420Z,18.20
2018-05-06T21:49:26.837Z,18.20
2018-05-06T21:51:54.260Z,18.20
2018-05-06T21:54:21.694Z,18.10
2018-05-06T21:56:49.100Z,18.00
2018-05-06T21:59:16.573Z,17.90
2018-05-06T22:01:43.984Z,17.80
2018-05-06T22:04:11.410Z,17.80
2018-05-06T22:06:39.584Z,17.80
2018-05-06T22:09:07.760Z,17.70
2018-05-06T22:11:35.941Z,17.60
2018-05-06T22:14:03.444Z,17.60
2018-05-06T22:16:30.853Z,17.60
2018-05-06T22:18:58.273Z,17.50
2018-05-06T22:21:25.680Z,17.50
2018-05-06T22:23:53.089Z,17.50
2018-05-06T22:26:20.594Z,17.40
2018-05-06T22:28:48.009Z,17.40
2018-05-06T22:31:15.419Z,17.40
2018-05-06T22:33:43.593Z,17.30
2018-05-06T22:36:11.781Z,17.20
2018-05-06T22:38:39.961Z,17.20
2018-05-06T22:41:07.376Z,17.10
2018-05-06T22:43:34.792Z,17.10
2018-05-06T22:46:02.209Z,17.00
2018-05-06T22:48:29.617Z,17.00
2018-05-06T22:50:57.054Z,16.90
2018-05-06T22:53:24.504Z,16.90
2018-05-06T22:55:51.916Z,16.90
2018-05-06T22:58:19.328Z,16.70
2018-05-06T23:00:47.518Z,16.70
2018-05-06T23:03:15.712Z,16.70
2018-05-06T23:05:43.190Z,16.70
2018-05-06T23:08:10.652Z,16.70
2018-05-06T23:10:38.068Z,16.80
2018-05-06T23:13:05.485Z,16.70
2018-05-06T23:15:33.656Z,16.60
2018-05-06T23:18:01.837Z,16.60
2018-05-06T23:20:29.342Z,16.60
2018-05-06T23:22:56.761Z,16.60
2018-05-06T23:25:24.177Z,16.60
2018-05-06T23:27:51.653Z,16.60
2018-05-06T23:30:19.116Z,16.60
2018-05-06T23:32:47.009Z,16.50
2018-05-06T23:35:14.404Z,16.50
2018-05-06T23:37:41.821Z,16.50
2018-05-06T23:40:10.001Z,16.50
2018-05-06T23:42:38.193Z,16.50
2018-05-06T23:45:06.365Z,16.40
2018-05-06T23:47:33.785Z,16.40
2018-05-06T23:50:01.208Z,16.40
2018-05-06T23:52:28.661Z,16.30
2018-05-06T23:54:56.028Z,16.30
2018-05-06T23:57:23.445Z,16.30
2018-05-06T23:59:50.861Z,16.20
